Mikado, MI (48745)

2:01 AM EDT on September 01, 2015 (GMT -0400)
KMIOSCOD3 | | Change Station
CLOSE
Current Station
Personal Weather Station
Location: On the Beach , North of Oscoda, MI
Elevation: 582 ft
Nearby Weather Stations

Elev 582 ft 44.51 °N, 83.32 °W | Updated 11 seconds ago

Clear
Clear
63.6 °F
Feels Like 63.6 °F
N
0.0
Wind Variable Wind from West
Gusts 0.0 mph

Today
High -- | Low -- °F
--% Chance of Precip.
Yesterday
High -- | Low -- °F
Precip. -- in
6:56 AM 8:10 PM
Waning Gibbous, 91% visible
Pressure 30.02 in
Visibility 7.0 miles
Clouds Clear
Dew Point 62 °F
Humidity 93%
Rainfall 0.00 in
Snow Depth Not available.
UV 0 out of 12
Pollen 10.50 out of 12
Air Quality Not available.
Flu Activity Not available.
METAR KOSC 010553Z AUTO 22003KT 7SM CLR 19/19 A3002 RMK AO2 T01930185 10226 20181
Pressure 30.02 in
Visibility 7.0 miles
Clouds Clear
Dew Point 62 °F
Humidity 93%
Rainfall 0.00 in
Snow Depth Not available.
UV 0 out of 12
Pollen 10.50 out of 12
Air Quality Not available.
Flu Activity Not available.
METAR KOSC 010553Z AUTO 22003KT 7SM CLR 19/19 A3002 RMK AO2 T01930185 10226 20181
Nowcast | as of 2:00 am EDT on September 1, 2015

At 3 am...clear. Areas of fog. Temperature 66. Southwest winds 6 mph. At 5 am...clear. Areas of fog. Temperature 64. Southwest winds 5 mph. At 7 am...clear. Areas of fog. Temperature 63. West winds 5 mph. At 9 am...clear. Areas of fog. Temperature 66. Southwest winds 5 mph.

×

10-Day Weather Forecast

×

Almanac

Astronomy

Sep. 01, 2015 Rise Set
Actual Time
Civil Twilight
Nautical Twilight
Astronomical Twilight
Moon
Length of Visible Light
Length of Day
Tomorrow will be .
, % of the Moon is Illuminated

Today's Extremes

State Highs State Lows

Community

WunderPhotos

Upload Photos

1,851,484 photos uploaded!

WunderBlogs® & News

Nearby

Air Quality

  Air Quality AQ Index Pollutant
Not available.

Snow Depth

Station Depth Elevation

Earthquake Activity

City Distance Mag. Time & Date
Minimum magnitude displayed is 2.5.

Coastal Water Temperatures

Place Temperature

Stations

Nearby Weather Stations

Station Location Temp. Windchill Dew Point Humidity Wind Precip. Elev Updated Type